DAL8673 KDEN-KSEA
Flight info
| Callsign | DAL8673 |
|---|---|
| Flight time | 2h 25m |
| Altitude | 36000 |
| Route | DDRTH1 DDRTH IDA PDT CHINS5 |
| Aircraft | B738/M-SDE2E3FGHIRWXY/LB1 |
Departure
| Time | 2026-05-06 19:16 |
|---|---|
| Airport | Denver International Airport (KDEN) |
Arrival
| Time | 2026-05-06 21:41 |
|---|---|
| Airport | Seattle–Tacoma International Airport (KSEA) |
| Time | Latitude | Longitude | Altitude | Speed | Heading |
|---|---|---|---|---|---|
| 2026-05-06 18:51 | 39.85331 | -104.67613 | 5442 ft | 0 kts | 1° |
| 2026-05-06 19:09 | 39.85330 | -104.67613 | 5442 ft | 1 kts | 1° |
| 2026-05-06 19:09 | 39.85315 | -104.67614 | 5442 ft | 2 kts | 1° |
| 2026-05-06 19:09 | 39.85300 | -104.67614 | 5442 ft | 1 kts | 1° |
| 2026-05-06 19:10 | 39.85291 | -104.67614 | 5442 ft | 2 kts | 341° |
| 2026-05-06 19:10 | 39.85279 | -104.67602 | 5442 ft | 2 kts | 297° |
| 2026-05-06 19:10 | 39.85276 | -104.67590 | 5442 ft | 1 kts | 271° |
| 2026-05-06 19:10 | 39.85276 | -104.67582 | 5442 ft | 0 kts | 269° |
| 2026-05-06 19:12 | 39.85276 | -104.67598 | 5442 ft | 5 kts | 268° |
| 2026-05-06 19:13 | 39.85279 | -104.67682 | 5442 ft | 13 kts | 272° |
| 2026-05-06 19:13 | 39.85282 | -104.67836 | 5442 ft | 20 kts | 271° |
| 2026-05-06 19:13 | 39.85287 | -104.68059 | 5442 ft | 28 kts | 266° |
| 2026-05-06 19:13 | 39.85213 | -104.68301 | 5442 ft | 29 kts | 254° |
| 2026-05-06 19:14 | 39.85204 | -104.68552 | 5442 ft | 26 kts | 268° |
| 2026-05-06 19:14 | 39.85200 | -104.68776 | 5442 ft | 23 kts | 268° |
| 2026-05-06 19:14 | 39.85196 | -104.69002 | 5442 ft | 27 kts | 269° |
| 2026-05-06 19:14 | 39.85197 | -104.69270 | 5442 ft | 31 kts | 271° |
| 2026-05-06 19:15 | 39.85199 | -104.69552 | 5442 ft | 21 kts | 268° |
| 2026-05-06 19:15 | 39.85239 | -104.69659 | 5442 ft | 11 kts | 357° |
| 2026-05-06 19:15 | 39.85281 | -104.69659 | 5442 ft | 17 kts | 359° |
| 2026-05-06 19:15 | 39.85628 | -104.69655 | 5442 ft | 82 kts | 0° |
| 2026-05-06 19:16 | 39.86404 | -104.69651 | 5442 ft | 140 kts | 1° |
| 2026-05-06 19:16 | 39.87538 | -104.69653 | 5587 ft | 178 kts | 359° |
| 2026-05-06 19:16 | 39.88802 | -104.69717 | 6247 ft | 188 kts | 2° |
| 2026-05-06 19:16 | 39.90212 | -104.69658 | 6607 ft | 220 kts | 3° |
| 2026-05-06 19:17 | 39.91787 | -104.69606 | 7112 ft | 234 kts | 2° |
| 2026-05-06 19:17 | 39.93412 | -104.69560 | 7549 ft | 233 kts | 2° |
| 2026-05-06 19:17 | 39.95027 | -104.69516 | 7996 ft | 232 kts | 2° |
| 2026-05-06 19:17 | 39.96638 | -104.69562 | 8425 ft | 233 kts | 351° |
| 2026-05-06 19:18 | 39.98188 | -104.70172 | 8827 ft | 234 kts | 343° |
| 2026-05-06 19:18 | 39.99712 | -104.70858 | 9253 ft | 234 kts | 342° |
| 2026-05-06 19:18 | 40.01244 | -104.71561 | 9681 ft | 233 kts | 341° |
| 2026-05-06 19:18 | 40.02753 | -104.72258 | 10106 ft | 234 kts | 341° |
| 2026-05-06 19:19 | 40.04291 | -104.72969 | 10541 ft | 234 kts | 340° |
| 2026-05-06 19:19 | 40.05839 | -104.73686 | 10988 ft | 235 kts | 340° |
| 2026-05-06 19:19 | 40.07357 | -104.74390 | 11431 ft | 235 kts | 340° |
| 2026-05-06 19:19 | 40.08898 | -104.75105 | 11878 ft | 236 kts | 339° |
| 2026-05-06 19:20 | 40.10457 | -104.75829 | 12330 ft | 238 kts | 339° |
| 2026-05-06 19:20 | 40.12007 | -104.76551 | 12785 ft | 239 kts | 339° |
| 2026-05-06 19:20 | 40.13585 | -104.77284 | 13244 ft | 241 kts | 339° |
| 2026-05-06 19:20 | 40.15150 | -104.78012 | 13695 ft | 243 kts | 339° |
| 2026-05-06 19:21 | 40.16750 | -104.78756 | 14153 ft | 244 kts | 339° |
| 2026-05-06 19:21 | 40.18351 | -104.79501 | 14608 ft | 246 kts | 339° |
| 2026-05-06 19:21 | 40.19964 | -104.80251 | 15081 ft | 255 kts | 339° |
| 2026-05-06 19:21 | 40.21675 | -104.81049 | 15580 ft | 270 kts | 339° |
| 2026-05-06 19:22 | 40.23486 | -104.81892 | 16130 ft | 283 kts | 339° |
| 2026-05-06 19:22 | 40.25360 | -104.82766 | 16711 ft | 294 kts | 339° |
| 2026-05-06 19:22 | 40.27317 | -104.83678 | 17288 ft | 306 kts | 339° |
| 2026-05-06 19:22 | 40.29351 | -104.84628 | 17861 ft | 316 kts | 339° |
| 2026-05-06 19:23 | 40.31450 | -104.85608 | 18431 ft | 326 kts | 339° |
| 2026-05-06 19:23 | 40.33630 | -104.86626 | 19010 ft | 336 kts | 339° |
| 2026-05-06 19:23 | 40.35831 | -104.87655 | 19565 ft | 341 kts | 339° |
| 2026-05-06 19:23 | 40.38079 | -104.88706 | 20082 ft | 344 kts | 339° |
| 2026-05-06 19:24 | 40.40308 | -104.89750 | 20572 ft | 346 kts | 339° |
| 2026-05-06 19:24 | 40.42601 | -104.90824 | 21069 ft | 349 kts | 339° |
| 2026-05-06 19:24 | 40.44884 | -104.91895 | 21562 ft | 352 kts | 339° |
| 2026-05-06 19:24 | 40.47169 | -104.92968 | 22050 ft | 355 kts | 339° |
| 2026-05-06 19:25 | 40.49500 | -104.94063 | 22547 ft | 358 kts | 339° |
| 2026-05-06 19:25 | 40.51833 | -104.95159 | 23041 ft | 361 kts | 339° |
| 2026-05-06 19:25 | 40.54216 | -104.96281 | 23542 ft | 364 kts | 339° |
| 2026-05-06 19:25 | 40.56587 | -104.97397 | 24032 ft | 367 kts | 339° |
| 2026-05-06 19:26 | 40.58991 | -104.98530 | 24527 ft | 370 kts | 339° |
| 2026-05-06 19:26 | 40.61410 | -104.99670 | 25023 ft | 373 kts | 339° |
| 2026-05-06 19:26 | 40.63860 | -105.00826 | 25523 ft | 376 kts | 339° |
| 2026-05-06 19:26 | 40.66324 | -105.01989 | 26020 ft | 379 kts | 339° |
| 2026-05-06 19:27 | 40.68805 | -105.03162 | 26515 ft | 383 kts | 339° |
| 2026-05-06 19:27 | 40.71319 | -105.04351 | 27012 ft | 386 kts | 339° |
| 2026-05-06 19:27 | 40.73843 | -105.05564 | 27504 ft | 389 kts | 337° |
| 2026-05-06 19:27 | 40.76195 | -105.07262 | 27947 ft | 392 kts | 323° |
| 2026-05-06 19:28 | 40.78165 | -105.09736 | 28409 ft | 396 kts | 311° |
| 2026-05-06 19:28 | 40.79923 | -105.12563 | 28891 ft | 398 kts | 310° |
| 2026-05-06 19:28 | 40.81659 | -105.15421 | 29382 ft | 400 kts | 310° |
| 2026-05-06 19:28 | 40.83384 | -105.18288 | 29867 ft | 402 kts | 310° |
| 2026-05-06 19:29 | 40.85101 | -105.21152 | 30336 ft | 403 kts | 310° |
| 2026-05-06 19:29 | 40.86850 | -105.24076 | 30777 ft | 406 kts | 310° |
| 2026-05-06 19:29 | 40.88602 | -105.27008 | 31223 ft | 407 kts | 310° |
| 2026-05-06 19:29 | 40.90340 | -105.29919 | 31661 ft | 408 kts | 310° |
| 2026-05-06 19:30 | 40.92114 | -105.32893 | 32106 ft | 409 kts | 310° |
| 2026-05-06 19:30 | 40.93877 | -105.35850 | 32546 ft | 410 kts | 310° |
| 2026-05-06 19:30 | 40.95634 | -105.38804 | 32983 ft | 410 kts | 310° |
| 2026-05-06 19:30 | 40.97396 | -105.41769 | 33424 ft | 410 kts | 310° |
| 2026-05-06 19:31 | 40.99154 | -105.44730 | 33868 ft | 410 kts | 310° |
| 2026-05-06 19:31 | 41.00916 | -105.47699 | 34310 ft | 409 kts | 311° |
| 2026-05-06 19:31 | 41.04396 | -105.53570 | 35182 ft | 407 kts | 311° |
| 2026-05-06 19:32 | 41.06136 | -105.56509 | 35617 ft | 405 kts | 311° |
| 2026-05-06 19:32 | 41.07876 | -105.59453 | 36042 ft | 404 kts | 312° |
| 2026-05-06 19:32 | 41.09611 | -105.62391 | 36148 ft | 411 kts | 312° |
| 2026-05-06 19:32 | 41.11390 | -105.65402 | 36191 ft | 418 kts | 311° |
| 2026-05-06 19:33 | 41.15005 | -105.71534 | 36165 ft | 420 kts | 311° |
| 2026-05-06 19:33 | 41.18549 | -105.77560 | 36152 ft | 416 kts | 311° |
| 2026-05-06 19:34 | 41.22095 | -105.83600 | 36159 ft | 416 kts | 311° |
| 2026-05-06 19:34 | 41.25640 | -105.89652 | 36160 ft | 416 kts | 311° |
| 2026-05-06 19:35 | 41.29180 | -105.95708 | 36159 ft | 416 kts | 311° |
| 2026-05-06 19:35 | 41.32716 | -106.01766 | 36158 ft | 416 kts | 311° |
| 2026-05-06 19:36 | 41.36254 | -106.07844 | 36157 ft | 416 kts | 311° |
| 2026-05-06 19:36 | 41.39767 | -106.13888 | 36160 ft | 416 kts | 311° |
| 2026-05-06 19:37 | 41.43292 | -106.19964 | 36163 ft | 416 kts | 311° |
| 2026-05-06 19:37 | 41.46082 | -106.25210 | 36150 ft | 420 kts | 304° |
| 2026-05-06 19:38 | 41.49309 | -106.33195 | 36181 ft | 422 kts | 303° |
| 2026-05-06 19:38 | 41.52023 | -106.40131 | 36174 ft | 422 kts | 303° |
| 2026-05-06 19:39 | 41.54729 | -106.47088 | 36171 ft | 422 kts | 303° |
| 2026-05-06 19:39 | 41.57423 | -106.54030 | 36169 ft | 422 kts | 303° |
| 2026-05-06 19:40 | 41.60117 | -106.60984 | 36170 ft | 422 kts | 303° |
| 2026-05-06 19:40 | 41.62800 | -106.67931 | 36173 ft | 422 kts | 302° |
| 2026-05-06 19:41 | 41.65484 | -106.74894 | 36180 ft | 425 kts | 302° |
| 2026-05-06 19:41 | 41.68178 | -106.81903 | 36168 ft | 424 kts | 302° |
| 2026-05-06 19:42 | 41.70875 | -106.88929 | 36176 ft | 428 kts | 301° |
| 2026-05-06 19:42 | 41.73609 | -106.96072 | 36178 ft | 432 kts | 301° |
| 2026-05-06 19:43 | 41.76344 | -107.03240 | 36179 ft | 435 kts | 301° |
| 2026-05-06 19:43 | 41.79082 | -107.10442 | 36178 ft | 436 kts | 301° |
| 2026-05-06 19:44 | 41.81830 | -107.17679 | 36178 ft | 436 kts | 301° |
| 2026-05-06 19:44 | 41.84571 | -107.24918 | 36178 ft | 436 kts | 301° |
| 2026-05-06 19:45 | 41.87298 | -107.32135 | 36177 ft | 436 kts | 301° |
| 2026-05-06 19:45 | 41.90028 | -107.39378 | 36177 ft | 436 kts | 301° |
| 2026-05-06 19:46 | 41.92759 | -107.46642 | 36177 ft | 436 kts | 301° |
| 2026-05-06 19:46 | 41.95481 | -107.53902 | 36177 ft | 436 kts | 301° |
| 2026-05-06 19:47 | 41.98195 | -107.61159 | 36176 ft | 436 kts | 301° |
| 2026-05-06 19:47 | 42.00898 | -107.68407 | 36179 ft | 436 kts | 300° |
| 2026-05-06 19:48 | 42.03610 | -107.75693 | 36177 ft | 436 kts | 300° |
| 2026-05-06 19:48 | 42.06326 | -107.83009 | 36177 ft | 436 kts | 300° |
| 2026-05-06 19:49 | 42.09010 | -107.90256 | 36168 ft | 436 kts | 300° |
| 2026-05-06 19:49 | 42.11710 | -107.97570 | 36178 ft | 435 kts | 300° |
| 2026-05-06 19:50 | 42.14400 | -108.04874 | 36171 ft | 436 kts | 300° |
| 2026-05-06 19:50 | 42.17075 | -108.12156 | 36157 ft | 436 kts | 300° |
| 2026-05-06 19:51 | 42.19755 | -108.19469 | 36143 ft | 436 kts | 300° |
| 2026-05-06 19:51 | 42.22433 | -108.26795 | 36130 ft | 436 kts | 300° |
| 2026-05-06 19:52 | 42.25097 | -108.34103 | 36130 ft | 436 kts | 300° |
| 2026-05-06 19:52 | 42.27752 | -108.41406 | 36129 ft | 436 kts | 300° |
| 2026-05-06 19:53 | 42.30416 | -108.48752 | 36128 ft | 435 kts | 300° |
| 2026-05-06 19:53 | 42.33069 | -108.56084 | 36127 ft | 436 kts | 300° |
| 2026-05-06 19:54 | 42.35720 | -108.63434 | 36128 ft | 436 kts | 300° |
| 2026-05-06 19:54 | 42.38367 | -108.70792 | 36130 ft | 436 kts | 299° |
| 2026-05-06 19:55 | 42.41002 | -108.78133 | 36128 ft | 436 kts | 299° |
| 2026-05-06 19:55 | 42.43638 | -108.85496 | 36129 ft | 436 kts | 299° |
| 2026-05-06 19:56 | 42.46278 | -108.92892 | 36128 ft | 436 kts | 299° |
| 2026-05-06 19:56 | 42.48908 | -109.00280 | 36128 ft | 436 kts | 299° |
| 2026-05-06 19:57 | 42.51519 | -109.07632 | 36127 ft | 437 kts | 300° |
| 2026-05-06 19:57 | 42.54152 | -109.15068 | 36126 ft | 439 kts | 300° |
| 2026-05-06 19:58 | 42.56799 | -109.22560 | 36129 ft | 439 kts | 300° |
| 2026-05-06 19:58 | 42.59426 | -109.30014 | 36147 ft | 439 kts | 300° |
| 2026-05-06 19:59 | 42.62040 | -109.37452 | 36168 ft | 440 kts | 300° |
| 2026-05-06 19:59 | 42.64663 | -109.44942 | 36186 ft | 439 kts | 300° |
| 2026-05-06 20:00 | 42.67279 | -109.52428 | 36189 ft | 439 kts | 300° |
| 2026-05-06 20:00 | 42.69887 | -109.59911 | 36187 ft | 440 kts | 300° |
| 2026-05-06 20:01 | 42.72498 | -109.67421 | 36189 ft | 440 kts | 299° |
| 2026-05-06 20:01 | 42.75098 | -109.74922 | 36190 ft | 439 kts | 299° |
| 2026-05-06 20:02 | 42.77686 | -109.82410 | 36190 ft | 440 kts | 299° |
| 2026-05-06 20:02 | 42.80289 | -109.89960 | 36190 ft | 440 kts | 299° |
| 2026-05-06 20:03 | 42.82862 | -109.97446 | 36187 ft | 440 kts | 299° |
| 2026-05-06 20:03 | 42.85444 | -110.04975 | 36188 ft | 440 kts | 299° |
| 2026-05-06 20:04 | 42.88037 | -110.12559 | 36187 ft | 440 kts | 299° |
| 2026-05-06 20:04 | 42.90596 | -110.20064 | 36185 ft | 439 kts | 299° |
| 2026-05-06 20:05 | 42.93156 | -110.27593 | 36185 ft | 438 kts | 299° |
| 2026-05-06 20:05 | 42.95702 | -110.35103 | 36185 ft | 436 kts | 299° |
| 2026-05-06 20:06 | 42.98244 | -110.42619 | 36184 ft | 435 kts | 299° |
| 2026-05-06 20:06 | 43.00755 | -110.50063 | 36179 ft | 434 kts | 299° |
| 2026-05-06 20:07 | 43.03262 | -110.57519 | 36171 ft | 433 kts | 299° |
| 2026-05-06 20:07 | 43.05769 | -110.64995 | 36161 ft | 433 kts | 299° |
| 2026-05-06 20:08 | 43.08271 | -110.72471 | 36162 ft | 433 kts | 298° |
| 2026-05-06 20:08 | 43.10767 | -110.79959 | 36169 ft | 433 kts | 298° |
| 2026-05-06 20:09 | 43.13250 | -110.87421 | 36168 ft | 433 kts | 298° |
| 2026-05-06 20:09 | 43.15733 | -110.94906 | 36168 ft | 434 kts | 298° |
| 2026-05-06 20:10 | 43.18239 | -111.02477 | 36170 ft | 437 kts | 298° |
| 2026-05-06 20:10 | 43.20730 | -111.10031 | 36172 ft | 438 kts | 298° |
| 2026-05-06 20:11 | 43.23233 | -111.17645 | 36181 ft | 439 kts | 297° |
| 2026-05-06 20:11 | 43.25729 | -111.25256 | 36188 ft | 439 kts | 297° |
| 2026-05-06 20:12 | 43.28221 | -111.32876 | 36192 ft | 438 kts | 297° |
| 2026-05-06 20:12 | 43.30707 | -111.40500 | 36191 ft | 439 kts | 298° |
| 2026-05-06 20:13 | 43.33191 | -111.48138 | 36187 ft | 439 kts | 297° |
| 2026-05-06 20:13 | 43.35676 | -111.55801 | 36185 ft | 438 kts | 297° |
| 2026-05-06 20:14 | 43.38141 | -111.63425 | 36182 ft | 439 kts | 297° |
| 2026-05-06 20:14 | 43.40617 | -111.71107 | 36183 ft | 439 kts | 297° |
| 2026-05-06 20:15 | 43.43075 | -111.78751 | 36184 ft | 439 kts | 297° |
| 2026-05-06 20:15 | 43.45530 | -111.86413 | 36183 ft | 439 kts | 297° |
| 2026-05-06 20:16 | 43.47979 | -111.94074 | 36183 ft | 439 kts | 297° |
| 2026-05-06 20:16 | 43.50421 | -112.01734 | 36183 ft | 439 kts | 297° |
| 2026-05-06 20:17 | 43.52968 | -112.09345 | 36186 ft | 438 kts | 299° |
| 2026-05-06 20:17 | 43.55666 | -112.16876 | 36181 ft | 438 kts | 300° |
| 2026-05-06 20:18 | 43.58349 | -112.24367 | 36181 ft | 438 kts | 300° |
| 2026-05-06 20:18 | 43.61042 | -112.31912 | 36181 ft | 438 kts | 300° |
| 2026-05-06 20:19 | 43.63715 | -112.39418 | 36178 ft | 438 kts | 300° |
| 2026-05-06 20:19 | 43.66398 | -112.46975 | 36179 ft | 438 kts | 300° |
| 2026-05-06 20:20 | 43.69072 | -112.54527 | 36178 ft | 438 kts | 300° |
| 2026-05-06 20:20 | 43.71728 | -112.62048 | 36179 ft | 438 kts | 300° |
| 2026-05-06 20:21 | 43.74382 | -112.69584 | 36183 ft | 438 kts | 299° |
| 2026-05-06 20:21 | 43.77046 | -112.77170 | 36181 ft | 439 kts | 299° |
| 2026-05-06 20:22 | 43.79692 | -112.84722 | 36180 ft | 439 kts | 299° |
| 2026-05-06 20:22 | 43.82346 | -112.92319 | 36179 ft | 439 kts | 298° |
| 2026-05-06 20:23 | 43.84992 | -112.99918 | 36179 ft | 440 kts | 298° |
| 2026-05-06 20:23 | 43.87649 | -113.07571 | 36181 ft | 440 kts | 298° |
| 2026-05-06 20:24 | 43.90286 | -113.15186 | 36177 ft | 440 kts | 298° |
| 2026-05-06 20:24 | 43.92929 | -113.22842 | 36164 ft | 441 kts | 298° |
| 2026-05-06 20:25 | 43.95567 | -113.30499 | 36143 ft | 441 kts | 298° |
| 2026-05-06 20:25 | 43.98193 | -113.38150 | 36128 ft | 440 kts | 298° |
| 2026-05-06 20:26 | 44.00827 | -113.45840 | 36114 ft | 441 kts | 298° |
| 2026-05-06 20:26 | 44.03440 | -113.53496 | 36111 ft | 441 kts | 298° |
| 2026-05-06 20:27 | 44.06060 | -113.61189 | 36113 ft | 441 kts | 298° |
| 2026-05-06 20:27 | 44.08667 | -113.68865 | 36115 ft | 441 kts | 297° |
| 2026-05-06 20:28 | 44.11269 | -113.76553 | 36148 ft | 442 kts | 297° |
| 2026-05-06 20:28 | 44.13887 | -113.84306 | 36137 ft | 441 kts | 297° |
| 2026-05-06 20:29 | 44.16479 | -113.92006 | 36122 ft | 441 kts | 297° |
| 2026-05-06 20:29 | 44.19072 | -113.99729 | 36123 ft | 441 kts | 297° |
| 2026-05-06 20:30 | 44.22942 | -114.11304 | 36121 ft | 441 kts | 297° |
| 2026-05-06 20:31 | 44.25515 | -114.19025 | 36119 ft | 441 kts | 297° |
| 2026-05-06 20:31 | 44.28090 | -114.26773 | 36118 ft | 441 kts | 297° |
| 2026-05-06 20:32 | 44.30662 | -114.34538 | 36119 ft | 441 kts | 297° |
| 2026-05-06 20:32 | 44.33220 | -114.42283 | 36120 ft | 441 kts | 297° |
| 2026-05-06 20:33 | 44.35784 | -114.50070 | 36119 ft | 441 kts | 298° |
| 2026-05-06 20:33 | 44.38324 | -114.57803 | 36119 ft | 441 kts | 298° |
| 2026-05-06 20:34 | 44.40876 | -114.65597 | 36118 ft | 441 kts | 297° |
| 2026-05-06 20:34 | 44.43432 | -114.73426 | 36119 ft | 442 kts | 297° |
| 2026-05-06 20:35 | 44.45954 | -114.81175 | 36120 ft | 441 kts | 297° |
| 2026-05-06 20:35 | 44.48502 | -114.89024 | 36119 ft | 441 kts | 297° |
| 2026-05-06 20:36 | 44.51028 | -114.96832 | 36118 ft | 442 kts | 297° |
| 2026-05-06 20:36 | 44.53544 | -115.04630 | 36124 ft | 442 kts | 297° |
| 2026-05-06 20:37 | 44.56081 | -115.12516 | 36137 ft | 444 kts | 297° |
| 2026-05-06 20:37 | 44.58594 | -115.20354 | 36154 ft | 444 kts | 297° |
| 2026-05-06 20:38 | 44.61118 | -115.28246 | 36171 ft | 445 kts | 297° |
| 2026-05-06 20:38 | 44.63641 | -115.36164 | 36175 ft | 444 kts | 297° |
| 2026-05-06 20:39 | 44.66145 | -115.44045 | 36182 ft | 445 kts | 297° |
| 2026-05-06 20:39 | 44.68670 | -115.52012 | 36178 ft | 445 kts | 297° |
| 2026-05-06 20:40 | 44.71161 | -115.59896 | 36179 ft | 445 kts | 297° |
| 2026-05-06 20:40 | 44.73666 | -115.67855 | 36179 ft | 444 kts | 296° |
| 2026-05-06 20:41 | 44.76146 | -115.75755 | 36180 ft | 445 kts | 296° |
| 2026-05-06 20:41 | 44.78650 | -115.83752 | 36180 ft | 445 kts | 296° |
| 2026-05-06 20:42 | 44.81134 | -115.91718 | 36181 ft | 445 kts | 296° |
| 2026-05-06 20:42 | 44.83602 | -115.99648 | 36180 ft | 445 kts | 296° |
| 2026-05-06 20:43 | 44.86066 | -116.07597 | 36177 ft | 445 kts | 296° |
| 2026-05-06 20:43 | 44.88539 | -116.15596 | 36178 ft | 445 kts | 296° |
| 2026-05-06 20:44 | 44.90995 | -116.23567 | 36182 ft | 445 kts | 296° |
| 2026-05-06 20:44 | 44.93454 | -116.31575 | 36200 ft | 445 kts | 296° |
| 2026-05-06 20:45 | 44.95905 | -116.39574 | 36192 ft | 445 kts | 296° |
| 2026-05-06 20:45 | 44.98354 | -116.47594 | 36180 ft | 445 kts | 296° |
| 2026-05-06 20:46 | 45.00796 | -116.55622 | 36175 ft | 445 kts | 296° |
| 2026-05-06 20:46 | 45.03220 | -116.63609 | 36176 ft | 445 kts | 296° |
| 2026-05-06 20:47 | 45.05657 | -116.71668 | 36164 ft | 445 kts | 295° |
| 2026-05-06 20:47 | 45.08075 | -116.79687 | 36139 ft | 445 kts | 295° |
| 2026-05-06 20:48 | 45.10501 | -116.87758 | 36118 ft | 445 kts | 295° |
| 2026-05-06 20:48 | 45.12905 | -116.95785 | 36112 ft | 443 kts | 295° |
| 2026-05-06 20:49 | 45.15281 | -117.03747 | 36111 ft | 439 kts | 295° |
| 2026-05-06 20:49 | 45.17640 | -117.11662 | 36092 ft | 436 kts | 294° |
| 2026-05-06 20:50 | 45.19973 | -117.19535 | 36093 ft | 435 kts | 294° |
| 2026-05-06 20:50 | 45.22326 | -117.27491 | 36091 ft | 436 kts | 294° |
| 2026-05-06 20:51 | 45.24652 | -117.35383 | 36090 ft | 436 kts | 294° |
| 2026-05-06 20:51 | 45.26980 | -117.43302 | 36090 ft | 435 kts | 294° |
| 2026-05-06 20:52 | 45.29304 | -117.51234 | 36089 ft | 436 kts | 294° |
| 2026-05-06 20:52 | 45.31623 | -117.59177 | 36089 ft | 436 kts | 294° |
| 2026-05-06 20:53 | 45.33924 | -117.67082 | 36086 ft | 436 kts | 294° |
| 2026-05-06 20:53 | 45.36230 | -117.75027 | 36079 ft | 436 kts | 294° |
| 2026-05-06 20:54 | 45.38536 | -117.82999 | 36069 ft | 436 kts | 294° |
| 2026-05-06 20:54 | 45.40839 | -117.90982 | 36065 ft | 436 kts | 293° |
| 2026-05-06 20:55 | 45.43114 | -117.98903 | 36065 ft | 436 kts | 294° |
| 2026-05-06 20:55 | 45.45396 | -118.06872 | 36064 ft | 436 kts | 294° |
| 2026-05-06 20:56 | 45.47685 | -118.14883 | 36063 ft | 436 kts | 294° |
| 2026-05-06 20:56 | 45.49956 | -118.22861 | 36064 ft | 436 kts | 294° |
| 2026-05-06 20:57 | 45.52225 | -118.30859 | 36063 ft | 436 kts | 293° |
| 2026-05-06 20:57 | 45.54487 | -118.38861 | 36052 ft | 436 kts | 294° |
| 2026-05-06 20:58 | 45.56747 | -118.46878 | 36037 ft | 436 kts | 293° |
| 2026-05-06 20:58 | 45.58990 | -118.54861 | 36022 ft | 436 kts | 294° |
| 2026-05-06 20:59 | 45.61239 | -118.62896 | 36015 ft | 436 kts | 294° |
| 2026-05-06 20:59 | 45.63479 | -118.70924 | 36018 ft | 436 kts | 293° |
| 2026-05-06 21:00 | 45.65717 | -118.78969 | 36018 ft | 436 kts | 293° |
| 2026-05-06 21:00 | 45.67942 | -118.86991 | 36017 ft | 436 kts | 292° |
| 2026-05-06 21:01 | 45.70506 | -118.94754 | 35998 ft | 435 kts | 306° |
| 2026-05-06 21:01 | 45.74366 | -119.01467 | 36045 ft | 437 kts | 309° |
| 2026-05-06 21:01 | 45.76328 | -119.04787 | 35910 ft | 439 kts | 310° |
| 2026-05-06 21:02 | 45.78262 | -119.08059 | 35816 ft | 436 kts | 310° |
| 2026-05-06 21:02 | 45.82158 | -119.14653 | 35770 ft | 432 kts | 310° |
| 2026-05-06 21:02 | 45.84089 | -119.17927 | 35371 ft | 435 kts | 310° |
| 2026-05-06 21:03 | 45.86032 | -119.21223 | 35070 ft | 430 kts | 310° |
| 2026-05-06 21:03 | 45.87950 | -119.24482 | 34746 ft | 425 kts | 310° |
| 2026-05-06 21:03 | 45.89838 | -119.27692 | 34435 ft | 422 kts | 310° |
| 2026-05-06 21:03 | 45.91741 | -119.30933 | 34122 ft | 420 kts | 310° |
| 2026-05-06 21:04 | 45.93611 | -119.34121 | 33816 ft | 418 kts | 310° |
| 2026-05-06 21:04 | 45.95471 | -119.37296 | 33510 ft | 417 kts | 310° |
| 2026-05-06 21:04 | 45.97310 | -119.40439 | 33205 ft | 416 kts | 310° |
| 2026-05-06 21:04 | 45.99165 | -119.43613 | 32896 ft | 414 kts | 310° |
| 2026-05-06 21:05 | 46.01011 | -119.46772 | 32585 ft | 412 kts | 310° |
| 2026-05-06 21:05 | 46.02855 | -119.49934 | 32273 ft | 411 kts | 310° |
| 2026-05-06 21:05 | 46.04677 | -119.53063 | 31963 ft | 409 kts | 310° |
| 2026-05-06 21:05 | 46.06480 | -119.56160 | 31655 ft | 407 kts | 310° |
| 2026-05-06 21:06 | 46.08300 | -119.59293 | 31342 ft | 406 kts | 310° |
| 2026-05-06 21:06 | 46.10110 | -119.62408 | 31030 ft | 404 kts | 310° |
| 2026-05-06 21:06 | 46.11881 | -119.65462 | 30731 ft | 402 kts | 309° |
| 2026-05-06 21:06 | 46.13682 | -119.68572 | 30431 ft | 401 kts | 309° |
| 2026-05-06 21:07 | 46.15466 | -119.71654 | 30133 ft | 399 kts | 309° |
| 2026-05-06 21:07 | 46.17214 | -119.74677 | 29838 ft | 397 kts | 309° |
| 2026-05-06 21:07 | 46.18986 | -119.77747 | 29538 ft | 396 kts | 309° |
| 2026-05-06 21:07 | 46.20742 | -119.80791 | 29240 ft | 394 kts | 309° |
| 2026-05-06 21:08 | 46.22478 | -119.83805 | 28942 ft | 393 kts | 309° |
| 2026-05-06 21:08 | 46.24220 | -119.86831 | 28643 ft | 391 kts | 309° |
| 2026-05-06 21:08 | 46.25958 | -119.89854 | 28342 ft | 390 kts | 309° |
| 2026-05-06 21:08 | 46.27661 | -119.92820 | 28046 ft | 388 kts | 309° |
| 2026-05-06 21:09 | 46.29393 | -119.95840 | 27743 ft | 387 kts | 309° |
| 2026-05-06 21:09 | 46.31095 | -119.98810 | 27444 ft | 385 kts | 309° |
| 2026-05-06 21:09 | 46.32785 | -120.01763 | 27145 ft | 384 kts | 309° |
| 2026-05-06 21:09 | 46.34491 | -120.04745 | 26843 ft | 382 kts | 309° |
| 2026-05-06 21:10 | 46.36165 | -120.07677 | 26528 ft | 381 kts | 309° |
| 2026-05-06 21:10 | 46.37861 | -120.10650 | 26176 ft | 380 kts | 309° |
| 2026-05-06 21:10 | 46.39514 | -120.13551 | 25831 ft | 378 kts | 309° |
| 2026-05-06 21:10 | 46.41180 | -120.16477 | 25482 ft | 376 kts | 309° |
| 2026-05-06 21:11 | 46.42848 | -120.19409 | 25133 ft | 374 kts | 309° |
| 2026-05-06 21:11 | 46.44492 | -120.22303 | 24789 ft | 372 kts | 309° |
| 2026-05-06 21:11 | 46.46109 | -120.25152 | 24453 ft | 370 kts | 309° |
| 2026-05-06 21:11 | 46.47743 | -120.28035 | 24113 ft | 369 kts | 309° |
| 2026-05-06 21:12 | 46.49360 | -120.30891 | 23776 ft | 367 kts | 309° |
| 2026-05-06 21:12 | 46.50985 | -120.33762 | 23437 ft | 366 kts | 310° |
| 2026-05-06 21:12 | 46.52592 | -120.36606 | 23038 ft | 365 kts | 310° |
| 2026-05-06 21:12 | 46.54194 | -120.39442 | 22633 ft | 363 kts | 310° |
| 2026-05-06 21:13 | 46.55797 | -120.42284 | 22230 ft | 361 kts | 310° |
| 2026-05-06 21:13 | 46.57340 | -120.45142 | 21794 ft | 359 kts | 306° |
| 2026-05-06 21:13 | 46.58749 | -120.48070 | 21383 ft | 357 kts | 306° |
| 2026-05-06 21:13 | 46.60172 | -120.51036 | 20963 ft | 355 kts | 306° |
| 2026-05-06 21:14 | 46.61577 | -120.53971 | 20545 ft | 353 kts | 306° |
| 2026-05-06 21:14 | 46.62956 | -120.56854 | 20135 ft | 351 kts | 306° |
| 2026-05-06 21:14 | 46.64355 | -120.59787 | 19717 ft | 350 kts | 306° |
| 2026-05-06 21:14 | 46.65721 | -120.62650 | 19309 ft | 348 kts | 306° |
| 2026-05-06 21:15 | 46.67094 | -120.65533 | 18899 ft | 346 kts | 305° |
| 2026-05-06 21:15 | 46.68468 | -120.68420 | 18490 ft | 344 kts | 305° |
| 2026-05-06 21:15 | 46.69822 | -120.71269 | 18082 ft | 343 kts | 305° |
| 2026-05-06 21:15 | 46.71175 | -120.74116 | 17674 ft | 341 kts | 305° |
| 2026-05-06 21:16 | 46.72507 | -120.76925 | 17269 ft | 339 kts | 305° |
| 2026-05-06 21:16 | 46.73856 | -120.79772 | 16857 ft | 337 kts | 305° |
| 2026-05-06 21:16 | 46.75182 | -120.82573 | 16448 ft | 336 kts | 305° |
| 2026-05-06 21:16 | 46.76509 | -120.85378 | 16035 ft | 334 kts | 305° |
| 2026-05-06 21:17 | 46.77799 | -120.88107 | 15738 ft | 329 kts | 305° |
| 2026-05-06 21:17 | 46.79092 | -120.90848 | 15757 ft | 326 kts | 305° |
| 2026-05-06 21:17 | 46.80388 | -120.93597 | 15775 ft | 331 kts | 305° |
| 2026-05-06 21:17 | 46.81694 | -120.96368 | 15775 ft | 333 kts | 305° |
| 2026-05-06 21:18 | 46.83002 | -120.99149 | 15774 ft | 333 kts | 305° |
| 2026-05-06 21:18 | 46.84314 | -121.01942 | 15778 ft | 333 kts | 305° |
| 2026-05-06 21:18 | 46.85607 | -121.04696 | 15780 ft | 333 kts | 305° |
| 2026-05-06 21:18 | 46.86915 | -121.07484 | 15784 ft | 333 kts | 305° |
| 2026-05-06 21:19 | 46.88215 | -121.10258 | 15787 ft | 333 kts | 305° |
| 2026-05-06 21:19 | 46.89526 | -121.13057 | 15788 ft | 333 kts | 306° |
| 2026-05-06 21:19 | 46.90836 | -121.15859 | 15788 ft | 333 kts | 306° |
| 2026-05-06 21:19 | 46.92130 | -121.18629 | 15787 ft | 333 kts | 306° |
| 2026-05-06 21:20 | 46.93450 | -121.21456 | 15790 ft | 332 kts | 306° |
| 2026-05-06 21:20 | 46.94730 | -121.24198 | 15805 ft | 331 kts | 306° |
| 2026-05-06 21:20 | 46.96031 | -121.26991 | 15554 ft | 332 kts | 306° |
| 2026-05-06 21:20 | 46.97316 | -121.29751 | 15325 ft | 328 kts | 306° |
| 2026-05-06 21:21 | 46.98607 | -121.32529 | 15058 ft | 324 kts | 306° |
| 2026-05-06 21:21 | 46.99852 | -121.35209 | 14919 ft | 318 kts | 306° |
| 2026-05-06 21:21 | 47.01086 | -121.37869 | 14939 ft | 317 kts | 306° |
| 2026-05-06 21:21 | 47.02336 | -121.40565 | 14960 ft | 318 kts | 306° |
| 2026-05-06 21:22 | 47.03571 | -121.43230 | 14977 ft | 318 kts | 306° |
| 2026-05-06 21:22 | 47.04806 | -121.45901 | 14995 ft | 317 kts | 306° |
| 2026-05-06 21:22 | 47.06049 | -121.48589 | 14994 ft | 317 kts | 306° |
| 2026-05-06 21:22 | 47.07273 | -121.51241 | 14995 ft | 317 kts | 306° |
| 2026-05-06 21:23 | 47.08511 | -121.53925 | 14994 ft | 317 kts | 306° |
| 2026-05-06 21:23 | 47.09749 | -121.56612 | 14993 ft | 317 kts | 306° |
| 2026-05-06 21:23 | 47.10992 | -121.59311 | 14997 ft | 317 kts | 306° |
| 2026-05-06 21:23 | 47.12224 | -121.61990 | 14995 ft | 317 kts | 306° |
| 2026-05-06 21:24 | 47.13446 | -121.64650 | 14995 ft | 317 kts | 306° |
| 2026-05-06 21:24 | 47.14676 | -121.67330 | 14996 ft | 317 kts | 305° |
| 2026-05-06 21:24 | 47.15919 | -121.70041 | 14995 ft | 317 kts | 305° |
| 2026-05-06 21:24 | 47.17151 | -121.72728 | 14996 ft | 317 kts | 305° |
| 2026-05-06 21:25 | 47.18367 | -121.75387 | 14995 ft | 317 kts | 305° |
| 2026-05-06 21:25 | 47.19607 | -121.78098 | 14995 ft | 317 kts | 305° |
| 2026-05-06 21:25 | 47.20829 | -121.80774 | 14996 ft | 317 kts | 305° |
| 2026-05-06 21:25 | 47.22052 | -121.83454 | 14990 ft | 312 kts | 305° |
| 2026-05-06 21:26 | 47.23237 | -121.86053 | 14713 ft | 306 kts | 305° |
| 2026-05-06 21:26 | 47.24413 | -121.88635 | 14339 ft | 302 kts | 305° |
| 2026-05-06 21:26 | 47.25570 | -121.91177 | 13971 ft | 298 kts | 305° |
| 2026-05-06 21:26 | 47.26721 | -121.93709 | 13591 ft | 296 kts | 305° |
| 2026-05-06 21:27 | 47.27862 | -121.96220 | 13173 ft | 295 kts | 305° |
| 2026-05-06 21:27 | 47.28993 | -121.98711 | 12767 ft | 293 kts | 305° |
| 2026-05-06 21:27 | 47.30122 | -122.01202 | 12363 ft | 292 kts | 305° |
| 2026-05-06 21:27 | 47.31233 | -122.03653 | 12012 ft | 288 kts | 305° |
| 2026-05-06 21:28 | 47.32318 | -122.06052 | 11962 ft | 275 kts | 305° |
| 2026-05-06 21:28 | 47.33378 | -122.08402 | 11970 ft | 274 kts | 305° |
| 2026-05-06 21:28 | 47.34429 | -122.10759 | 11995 ft | 278 kts | 305° |
| 2026-05-06 21:28 | 47.35495 | -122.13148 | 11991 ft | 281 kts | 305° |
| 2026-05-06 21:29 | 47.36652 | -122.15471 | 11962 ft | 280 kts | 316° |
| 2026-05-06 21:29 | 47.38246 | -122.17079 | 11971 ft | 277 kts | 336° |
| 2026-05-06 21:29 | 47.40106 | -122.17728 | 11982 ft | 279 kts | 356° |
| 2026-05-06 21:29 | 47.42038 | -122.17796 | 11997 ft | 279 kts | 358° |
| 2026-05-06 21:30 | 47.43984 | -122.17838 | 11802 ft | 281 kts | 358° |
| 2026-05-06 21:30 | 47.45934 | -122.17777 | 11397 ft | 282 kts | 2° |
| 2026-05-06 21:30 | 47.47862 | -122.17595 | 11084 ft | 273 kts | 2° |
| 2026-05-06 21:30 | 47.49748 | -122.17406 | 10693 ft | 272 kts | 2° |
| 2026-05-06 21:31 | 47.51630 | -122.17211 | 10322 ft | 272 kts | 2° |
| 2026-05-06 21:31 | 47.53519 | -122.17010 | 9949 ft | 273 kts | 2° |
| 2026-05-06 21:31 | 47.55413 | -122.16804 | 9573 ft | 273 kts | 2° |
| 2026-05-06 21:31 | 47.57281 | -122.16595 | 9187 ft | 269 kts | 2° |
| 2026-05-06 21:32 | 47.59137 | -122.16383 | 8800 ft | 265 kts | 2° |
| 2026-05-06 21:32 | 47.62752 | -122.15962 | 8036 ft | 260 kts | 2° |
| 2026-05-06 21:32 | 47.64536 | -122.15752 | 7656 ft | 257 kts | 2° |
| 2026-05-06 21:33 | 47.66321 | -122.15541 | 7273 ft | 256 kts | 2° |
| 2026-05-06 21:33 | 47.68078 | -122.15335 | 6896 ft | 254 kts | 2° |
| 2026-05-06 21:33 | 47.69816 | -122.15131 | 6615 ft | 242 kts | 2° |
| 2026-05-06 21:33 | 47.71445 | -122.14936 | 6244 ft | 230 kts | 2° |
| 2026-05-06 21:34 | 47.73012 | -122.14747 | 5999 ft | 221 kts | 2° |
| 2026-05-06 21:34 | 47.74517 | -122.14856 | 5990 ft | 219 kts | 342° |
| 2026-05-06 21:34 | 47.75847 | -122.15945 | 5994 ft | 220 kts | 316° |
| 2026-05-06 21:34 | 47.76702 | -122.17770 | 5984 ft | 218 kts | 291° |
| 2026-05-06 21:35 | 47.76922 | -122.19985 | 5990 ft | 217 kts | 266° |
| 2026-05-06 21:35 | 47.76452 | -122.22102 | 5988 ft | 218 kts | 240° |
| 2026-05-06 21:35 | 47.75566 | -122.23920 | 6054 ft | 218 kts | 235° |
| 2026-05-06 21:35 | 47.74646 | -122.25754 | 6048 ft | 227 kts | 235° |
| 2026-05-06 21:36 | 47.73543 | -122.27480 | 6005 ft | 237 kts | 218° |
| 2026-05-06 21:36 | 47.72040 | -122.28544 | 6022 ft | 242 kts | 205° |
| 2026-05-06 21:36 | 47.70468 | -122.29520 | 5993 ft | 247 kts | 205° |
| 2026-05-06 21:36 | 47.68858 | -122.30506 | 5816 ft | 256 kts | 203° |
| 2026-05-06 21:37 | 47.67118 | -122.31162 | 5538 ft | 259 kts | 193° |
| 2026-05-06 21:37 | 47.65401 | -122.31452 | 5072 ft | 240 kts | 187° |
| 2026-05-06 21:37 | 47.63811 | -122.31570 | 4873 ft | 215 kts | 185° |
| 2026-05-06 21:37 | 47.62321 | -122.31651 | 4059 ft | 224 kts | 185° |
| 2026-05-06 21:38 | 47.60805 | -122.31804 | 3313 ft | 219 kts | 187° |
| 2026-05-06 21:38 | 47.59330 | -122.32036 | 3005 ft | 192 kts | 189° |
| 2026-05-06 21:38 | 47.58050 | -122.32235 | 2502 ft | 188 kts | 179° |
| 2026-05-06 21:38 | 47.56825 | -122.31913 | 2218 ft | 173 kts | 175° |
| 2026-05-06 21:39 | 47.55665 | -122.31776 | 2000 ft | 164 kts | 180° |
| 2026-05-06 21:39 | 47.54545 | -122.31736 | 1899 ft | 156 kts | 182° |
| 2026-05-06 21:39 | 47.53459 | -122.31715 | 1698 ft | 158 kts | 183° |
| 2026-05-06 21:39 | 47.52358 | -122.31736 | 1509 ft | 157 kts | 183° |
| 2026-05-06 21:40 | 47.51267 | -122.31747 | 1316 ft | 157 kts | 182° |
| 2026-05-06 21:40 | 47.50190 | -122.31756 | 1111 ft | 154 kts | 182° |
| 2026-05-06 21:40 | 47.49123 | -122.31763 | 914 ft | 150 kts | 182° |
| 2026-05-06 21:40 | 47.48114 | -122.31770 | 716 ft | 145 kts | 182° |
| 2026-05-06 21:41 | 47.47120 | -122.31782 | 529 ft | 139 kts | 182° |
| 2026-05-06 21:41 | 47.46177 | -122.31795 | 351 ft | 132 kts | 182° |
| 2026-05-06 21:41 | 47.45338 | -122.31801 | 350 ft | 80 kts | 178° |
| 2026-05-06 21:41 | 47.45015 | -122.31797 | 372 ft | 37 kts | 173° |
| 2026-05-06 21:42 | 47.44804 | -122.31679 | 376 ft | 29 kts | 150° |
| 2026-05-06 21:42 | 47.44668 | -122.31504 | 379 ft | 22 kts | 116° |
| 2026-05-06 21:42 | 47.44646 | -122.31336 | 387 ft | 11 kts | 91° |
| 2026-05-06 21:42 | 47.44647 | -122.31230 | 390 ft | 8 kts | 90° |
| 2026-05-06 21:43 | 47.44638 | -122.31146 | 391 ft | 9 kts | 112° |
| 2026-05-06 21:43 | 47.44590 | -122.31055 | 391 ft | 13 kts | 144° |
| 2026-05-06 21:43 | 47.44489 | -122.30971 | 389 ft | 20 kts | 152° |
| 2026-05-06 21:43 | 47.44364 | -122.30817 | 386 ft | 26 kts | 112° |
| 2026-05-06 21:44 | 47.44290 | -122.30612 | 385 ft | 22 kts | 179° |
| 2026-05-06 21:44 | 47.44173 | -122.30501 | 382 ft | 13 kts | 93° |
| 2026-05-06 21:44 | 47.44173 | -122.30433 | 383 ft | 0 kts | 89° |